createdAt,value
2023-05-11T00:00:26.622Z,63.87
2023-05-11T00:01:18.079Z,64.04
2023-05-11T00:01:52.174Z,63.98
2023-05-11T00:02:26.030Z,64.05
2023-05-11T00:02:59.426Z,63.95
2023-05-11T00:03:33.471Z,64.11
2023-05-11T00:04:06.855Z,64.19
2023-05-11T00:04:40.393Z,64.19
2023-05-11T00:05:13.783Z,64.26
2023-05-11T00:05:49.808Z,64.21
2023-05-11T00:06:23.291Z,63.97
2023-05-11T00:06:57.003Z,64.06
2023-05-11T00:07:30.159Z,64.19
2023-05-11T00:08:03.545Z,64.25
2023-05-11T00:08:37.209Z,64.14
2023-05-11T00:09:11.448Z,63.96
2023-05-11T00:09:44.621Z,64.02
2023-05-11T00:10:18.334Z,64.14
2023-05-11T00:10:51.786Z,64.08
2023-05-11T00:11:25.070Z,64.09
2023-05-11T00:11:58.673Z,64.08
2023-05-11T00:12:31.864Z,64.09
2023-05-11T00:13:05.146Z,64.14
2023-05-11T00:13:38.403Z,64.40
2023-05-11T00:14:11.712Z,64.56
2023-05-11T00:14:45.059Z,64.68
2023-05-11T00:15:18.754Z,64.31
2023-05-11T00:15:52.178Z,64.36
2023-05-11T00:16:26.055Z,64.43
2023-05-11T00:16:59.642Z,64.13
2023-05-11T00:17:32.824Z,64.12
2023-05-11T00:18:06.207Z,64.16
2023-05-11T00:18:39.712Z,64.06
2023-05-11T00:19:13.056Z,64.06
2023-05-11T00:19:46.700Z,64.17
2023-05-11T00:20:21.672Z,64.16
2023-05-11T00:20:55.170Z,64.44
2023-05-11T00:21:28.548Z,64.49
2023-05-11T00:22:02.022Z,64.48
2023-05-11T00:22:35.702Z,64.26
2023-05-11T00:23:09.002Z,64.16
2023-05-11T00:23:42.481Z,64.22
2023-05-11T00:24:15.957Z,64.36
2023-05-11T00:24:49.136Z,64.62
2023-05-11T00:25:22.514Z,64.82
2023-05-11T00:25:55.997Z,64.77
2023-05-11T00:26:29.274Z,64.79
2023-05-11T00:27:02.561Z,64.90
2023-05-11T00:27:36.052Z,64.76
2023-05-11T00:28:10.461Z,64.86
2023-05-11T00:28:43.759Z,64.86
2023-05-11T00:29:17.522Z,64.94
2023-05-11T00:29:50.623Z,64.90
2023-05-11T00:30:23.996Z,64.76
2023-05-11T00:30:58.239Z,64.67
2023-05-11T00:31:31.635Z,64.65
2023-05-11T00:32:05.152Z,64.74
2023-05-11T00:32:38.453Z,64.79
2023-05-11T00:33:12.024Z,65.03
2023-05-11T00:33:45.811Z,65.03
2023-05-11T00:34:19.306Z,64.79
2023-05-11T00:34:52.779Z,64.84
2023-05-11T00:35:26.365Z,64.89
2023-05-11T00:35:59.649Z,64.89
2023-05-11T00:36:33.772Z,64.96
2023-05-11T00:37:07.131Z,64.87
2023-05-11T00:37:41.343Z,64.83
2023-05-11T00:38:15.026Z,64.87
2023-05-11T00:38:50.273Z,64.82
2023-05-11T00:39:23.747Z,64.57
2023-05-11T00:39:56.991Z,64.54
2023-05-11T00:40:33.972Z,64.41
2023-05-11T00:41:08.420Z,64.50
2023-05-11T00:41:41.768Z,64.40
2023-05-11T00:42:15.049Z,64.54
2023-05-11T00:42:48.328Z,64.47
2023-05-11T00:43:21.648Z,64.51
2023-05-11T00:43:55.305Z,64.64
2023-05-11T00:44:28.600Z,64.65
2023-05-11T00:45:01.897Z,64.72
2023-05-11T00:45:36.057Z,64.63
2023-05-11T00:46:09.559Z,64.68
2023-05-11T00:46:43.525Z,64.75
2023-05-11T00:47:17.649Z,65.10
2023-05-11T00:47:50.959Z,65.09
2023-05-11T00:48:24.320Z,65.04
2023-05-11T00:48:58.109Z,65.14
2023-05-11T00:49:31.506Z,65.25
2023-05-11T00:50:06.045Z,65.06
2023-05-11T00:50:39.278Z,64.96
2023-05-11T00:51:13.698Z,64.90
2023-05-11T00:51:47.534Z,64.77
2023-05-11T00:52:22.596Z,64.96
2023-05-11T00:52:58.026Z,64.95
2023-05-11T00:53:31.207Z,64.93
2023-05-11T00:54:04.538Z,65.02
2023-05-11T00:54:38.298Z,65.14
2023-05-11T00:55:13.937Z,65.06
2023-05-11T00:55:47.372Z,65.02
2023-05-11T00:56:21.922Z,64.82
2023-05-11T00:56:55.189Z,64.91
2023-05-11T00:57:30.840Z,64.93
2023-05-11T00:58:06.286Z,64.88
2023-05-11T00:58:39.753Z,64.95
2023-05-11T00:59:14.382Z,65.11
2023-05-11T00:59:49.873Z,65.20
2023-05-11T01:00:23.273Z,65.18
2023-05-11T01:00:56.702Z,65.12
2023-05-11T01:01:31.161Z,65.14
2023-05-11T01:02:05.305Z,65.32
2023-05-11T01:02:39.436Z,65.34
2023-05-11T01:03:15.383Z,65.34
2023-05-11T01:03:49.103Z,65.23
2023-05-11T01:04:22.399Z,65.36
2023-05-11T01:04:55.673Z,65.47
2023-05-11T01:06:05.614Z,65.42
2023-05-11T01:07:03.555Z,65.40
2023-05-11T01:08:05.837Z,65.07
2023-05-11T01:08:38.993Z,64.88
2023-05-11T01:09:32.658Z,64.84
2023-05-11T01:10:15.893Z,65.01
2023-05-11T01:11:14.165Z,64.90
2023-05-11T01:11:56.707Z,64.74
2023-05-11T01:12:51.218Z,64.67
2023-05-11T01:13:32.127Z,64.89
2023-05-11T01:14:10.890Z,64.91
2023-05-11T01:14:55.131Z,65.08
2023-05-11T01:15:40.221Z,65.05
2023-05-11T01:16:20.813Z,64.96
2023-05-11T01:16:59.153Z,65.11
2023-05-11T01:17:53.472Z,65.11
2023-05-11T01:18:44.337Z,65.03
2023-05-11T01:19:35.909Z,65.22
2023-05-11T01:20:17.736Z,65.00
2023-05-11T01:20:57.048Z,65.06
2023-05-11T01:21:33.585Z,64.93
2023-05-11T01:22:16.616Z,64.91
2023-05-11T01:23:13.406Z,65.07
2023-05-11T01:24:01.941Z,64.85
2023-05-11T01:24:49.787Z,64.75
2023-05-11T01:25:32.013Z,64.83
2023-05-11T01:26:08.540Z,65.00
2023-05-11T01:27:00.837Z,65.00
2023-05-11T01:27:48.973Z,65.26
2023-05-11T01:28:53.186Z,65.15
2023-05-11T01:30:04.123Z,65.27
2023-05-11T01:30:46.448Z,65.05
2023-05-11T01:31:20.833Z,65.04
2023-05-11T01:31:57.513Z,64.99
2023-05-11T01:32:36.447Z,65.05
2023-05-11T01:33:13.583Z,65.11
2023-05-11T01:33:59.783Z,65.14
2023-05-11T01:34:35.905Z,65.38
2023-05-11T01:35:15.362Z,65.39
2023-05-11T01:35:53.949Z,65.63
2023-05-11T01:36:32.865Z,65.37
2023-05-11T01:37:14.176Z,65.28
2023-05-11T01:37:51.495Z,65.44
2023-05-11T01:38:29.535Z,65.55
2023-05-11T01:39:07.476Z,65.61
2023-05-11T01:39:49.170Z,65.58
2023-05-11T01:40:26.113Z,65.45
2023-05-11T01:41:04.007Z,65.63
2023-05-11T01:41:39.792Z,65.60
2023-05-11T01:42:15.794Z,65.57
2023-05-11T01:42:51.889Z,65.56
2023-05-11T01:43:28.201Z,65.46
2023-05-11T01:44:06.032Z,65.42
2023-05-11T01:44:44.691Z,65.38
2023-05-11T01:45:19.447Z,65.45
2023-05-11T01:45:56.061Z,65.40
2023-05-11T01:46:33.370Z,65.70
2023-05-11T01:47:08.896Z,65.91
2023-05-11T01:47:43.928Z,66.06
2023-05-11T01:48:21.776Z,66.15
2023-05-11T01:48:58.674Z,66.29
2023-05-11T01:49:36.564Z,66.38
2023-05-11T01:50:11.816Z,66.34
2023-05-11T01:50:46.775Z,66.41
2023-05-11T01:51:20.745Z,66.48
2023-05-11T01:51:55.413Z,66.49
2023-05-11T01:52:31.129Z,66.46
2023-05-11T01:53:06.773Z,66.29
2023-05-11T01:53:42.699Z,66.11
2023-05-11T01:54:19.267Z,65.82
2023-05-11T01:54:55.609Z,65.73
2023-05-11T01:55:32.601Z,65.78
2023-05-11T01:56:07.665Z,65.68
2023-05-11T01:56:44.160Z,65.54
2023-05-11T01:57:18.324Z,65.30
2023-05-11T01:57:53.703Z,65.01
2023-05-11T01:58:29.076Z,64.87
2023-05-11T01:59:03.911Z,64.74
2023-05-11T01:59:39.652Z,64.44
2023-05-11T02:00:16.236Z,64.43
2023-05-11T02:00:50.037Z,64.42
2023-05-11T02:01:25.304Z,64.31
2023-05-11T02:02:00.631Z,64.35
2023-05-11T02:02:35.919Z,64.26
2023-05-11T02:03:11.447Z,64.37
2023-05-11T02:03:47.732Z,64.30
2023-05-11T02:04:22.614Z,64.35
2023-05-11T02:04:57.930Z,64.39
2023-05-11T02:05:33.570Z,64.40
2023-05-11T02:06:10.047Z,64.33
2023-05-11T02:06:45.060Z,64.47
2023-05-11T02:07:19.353Z,64.47
2023-05-11T02:07:54.985Z,64.51
2023-05-11T02:08:31.435Z,64.58
2023-05-11T02:09:07.839Z,64.62
2023-05-11T02:09:43.272Z,64.45
2023-05-11T02:10:18.080Z,64.51
2023-05-11T02:10:52.257Z,64.44
2023-05-11T02:11:28.454Z,64.33
2023-05-11T02:12:04.131Z,64.46
2023-05-11T02:12:40.105Z,64.60
2023-05-11T02:13:15.907Z,64.71
2023-05-11T02:13:52.164Z,64.87
2023-05-11T02:14:29.247Z,64.99
2023-05-11T02:15:04.257Z,65.28
2023-05-11T02:15:41.784Z,65.45
2023-05-11T02:16:16.568Z,65.48
2023-05-11T02:16:51.284Z,65.57
2023-05-11T02:17:25.446Z,65.68
2023-05-11T02:18:00.112Z,65.69
2023-05-11T02:18:34.424Z,65.66
2023-05-11T02:19:08.988Z,65.88
2023-05-11T02:19:45.045Z,66.03
2023-05-11T02:20:20.159Z,66.04
2023-05-11T02:20:54.416Z,65.88
2023-05-11T02:21:28.733Z,65.71
2023-05-11T02:22:03.529Z,65.62
2023-05-11T02:22:37.913Z,65.67
2023-05-11T02:23:12.208Z,65.65
2023-05-11T02:23:47.795Z,65.71
2023-05-11T02:24:21.841Z,65.71
2023-05-11T02:24:55.278Z,65.77
2023-05-11T02:25:30.889Z,65.84
2023-05-11T02:26:06.691Z,65.87
2023-05-11T02:26:39.967Z,65.97
2023-05-11T02:27:13.360Z,65.95
2023-05-11T02:27:46.854Z,65.96
2023-05-11T02:28:21.064Z,65.84
2023-05-11T02:28:54.429Z,65.50
2023-05-11T02:29:28.428Z,65.20
2023-05-11T02:30:02.965Z,65.16
2023-05-11T02:30:46.264Z,65.05
2023-05-11T02:31:25.788Z,65.11
2023-05-11T02:32:16.395Z,65.01
2023-05-11T02:32:53.265Z,64.99
2023-05-11T02:33:35.823Z,64.98
2023-05-11T02:34:22.113Z,65.08
2023-05-11T02:35:02.266Z,65.14
2023-05-11T02:35:44.297Z,65.22
2023-05-11T02:36:22.533Z,65.14
2023-05-11T02:37:02.016Z,65.22
2023-05-11T02:37:41.027Z,65.39
2023-05-11T02:38:16.228Z,65.60
2023-05-11T02:38:53.992Z,65.61
2023-05-11T02:39:34.141Z,65.87
2023-05-11T02:40:18.753Z,66.00
2023-05-11T02:40:57.828Z,66.28
2023-05-11T02:41:32.401Z,66.19
2023-05-11T02:42:16.140Z,66.25
2023-05-11T02:42:55.301Z,66.40
2023-05-11T02:43:34.052Z,66.36
2023-05-11T02:44:11.998Z,66.39
2023-05-11T02:44:54.357Z,66.43
2023-05-11T02:45:32.737Z,66.33
2023-05-11T02:46:11.699Z,66.30
2023-05-11T02:46:50.179Z,66.20
2023-05-11T02:47:29.489Z,66.16
2023-05-11T02:48:09.245Z,66.13
2023-05-11T02:48:49.916Z,66.08
2023-05-11T02:49:25.780Z,66.01
2023-05-11T02:50:04.620Z,66.00
2023-05-11T02:50:41.262Z,65.92
2023-05-11T02:51:17.670Z,65.89
2023-05-11T02:51:53.261Z,65.92
2023-05-11T02:52:28.487Z,65.92
2023-05-11T02:53:06.839Z,65.84
2023-05-11T02:53:42.078Z,65.85
2023-05-11T02:54:17.150Z,65.87
2023-05-11T02:54:53.788Z,65.89
2023-05-11T02:55:29.418Z,65.92
2023-05-11T02:56:03.073Z,65.91
2023-05-11T02:56:37.138Z,65.97
2023-05-11T02:57:11.526Z,66.00
2023-05-11T02:57:46.742Z,65.96
2023-05-11T02:58:21.304Z,66.07
2023-05-11T02:58:54.561Z,66.22
2023-05-11T02:59:28.867Z,66.33
2023-05-11T03:00:04.024Z,66.52
2023-05-11T03:00:39.275Z,66.63
2023-05-11T03:01:13.583Z,66.69
2023-05-11T03:01:47.815Z,66.94
2023-05-11T03:02:21.324Z,67.02
2023-05-11T03:02:55.075Z,66.95
2023-05-11T03:03:28.704Z,66.84
2023-05-11T03:04:05.054Z,66.87
2023-05-11T03:04:39.957Z,66.88
2023-05-11T03:05:13.327Z,66.90
2023-05-11T03:05:46.537Z,67.00
2023-05-11T03:06:20.008Z,67.01
2023-05-11T03:06:53.294Z,67.05
2023-05-11T03:07:26.960Z,67.00
2023-05-11T03:08:00.969Z,67.03
2023-05-11T03:08:34.774Z,66.99
2023-05-11T03:09:10.130Z,66.88
2023-05-11T03:09:44.512Z,66.80
2023-05-11T03:10:18.436Z,66.62
2023-05-11T03:10:53.424Z,66.44
2023-05-11T03:11:27.265Z,66.30
2023-05-11T03:12:02.451Z,66.19
2023-05-11T03:12:36.057Z,66.20
2023-05-11T03:13:11.142Z,66.22
2023-05-11T03:13:44.929Z,66.18
2023-05-11T03:14:18.612Z,66.21
2023-05-11T03:14:52.706Z,66.16
2023-05-11T03:15:26.921Z,66.10
2023-05-11T03:16:02.754Z,66.04
2023-05-11T03:16:38.252Z,66.20
2023-05-11T03:17:13.513Z,66.18
2023-05-11T03:17:46.956Z,66.07
2023-05-11T03:18:22.499Z,66.15
2023-05-11T03:18:56.673Z,65.92
2023-05-11T03:19:31.309Z,65.76
2023-05-11T03:20:05.140Z,65.59
2023-05-11T03:20:43.549Z,65.48
2023-05-11T03:21:21.598Z,65.34
2023-05-11T03:21:56.347Z,65.28
2023-05-11T03:22:30.966Z,65.17
2023-05-11T03:23:06.808Z,65.06
2023-05-11T03:23:41.209Z,65.09
2023-05-11T03:24:14.838Z,65.10
2023-05-11T03:24:49.013Z,65.27
2023-05-11T03:25:25.166Z,65.41
2023-05-11T03:25:59.974Z,65.55
2023-05-11T03:26:34.891Z,65.47
2023-05-11T03:27:09.907Z,65.36
2023-05-11T03:27:44.457Z,65.20
2023-05-11T03:28:20.581Z,65.11
2023-05-11T03:28:56.093Z,65.14
2023-05-11T03:29:30.200Z,65.15
2023-05-11T03:30:09.394Z,65.22
2023-05-11T03:30:46.441Z,65.32
2023-05-11T03:31:19.797Z,65.26
2023-05-11T03:31:54.612Z,65.37
2023-05-11T03:32:28.121Z,65.50
2023-05-11T03:33:02.665Z,65.67
2023-05-11T03:33:36.469Z,65.75
2023-05-11T03:34:09.650Z,65.80
2023-05-11T03:34:42.946Z,65.84
2023-05-11T03:35:17.004Z,65.71
2023-05-11T03:35:51.641Z,65.59
2023-05-11T03:36:25.740Z,65.58
2023-05-11T03:37:00.889Z,65.57
2023-05-11T03:37:36.993Z,65.61
2023-05-11T03:38:12.756Z,65.39
2023-05-11T03:38:47.330Z,65.22
2023-05-11T03:39:22.591Z,65.47
2023-05-11T03:39:59.400Z,65.60
2023-05-11T03:40:34.953Z,65.64
2023-05-11T03:41:08.677Z,65.74
2023-05-11T03:41:43.287Z,65.87
2023-05-11T03:42:17.899Z,65.92
2023-05-11T03:42:54.806Z,65.83
2023-05-11T03:43:32.051Z,65.83
2023-05-11T03:44:08.670Z,65.95
2023-05-11T03:44:47.206Z,65.95
2023-05-11T03:45:22.204Z,65.84
2023-05-11T03:45:57.400Z,65.61
2023-05-11T03:46:33.009Z,65.55
2023-05-11T03:47:08.113Z,65.58
2023-05-11T03:47:43.719Z,65.70
2023-05-11T03:48:18.742Z,65.73
2023-05-11T03:48:52.966Z,65.63
2023-05-11T03:49:27.365Z,65.49
2023-05-11T03:50:01.880Z,65.26
2023-05-11T03:50:35.777Z,65.30
2023-05-11T03:51:10.560Z,65.13
2023-05-11T03:51:45.014Z,64.99
2023-05-11T03:52:20.033Z,64.85
2023-05-11T03:52:54.530Z,64.75
2023-05-11T03:53:28.125Z,64.68
2023-05-11T03:54:01.602Z,64.59
2023-05-11T03:54:35.294Z,64.44
2023-05-11T03:55:09.725Z,64.38
2023-05-11T03:55:42.880Z,64.28
2023-05-11T03:56:16.972Z,64.24
2023-05-11T03:56:52.110Z,64.17
2023-05-11T03:57:26.455Z,64.13
2023-05-11T03:58:00.757Z,64.13
2023-05-11T03:58:39.462Z,64.10
2023-05-11T03:59:16.920Z,64.07
2023-05-11T03:59:50.136Z,64.07
2023-05-11T04:00:23.472Z,64.01
2023-05-11T04:00:56.941Z,63.95
2023-05-11T04:01:31.984Z,63.91
2023-05-11T04:02:05.552Z,63.97
2023-05-11T04:02:39.521Z,64.12
2023-05-11T04:03:13.321Z,64.41
2023-05-11T04:03:51.470Z,64.68
2023-05-11T04:04:31.772Z,64.87
2023-05-11T04:05:12.230Z,65.06
2023-05-11T04:05:45.823Z,65.12
2023-05-11T04:06:20.664Z,65.18
2023-05-11T04:06:53.826Z,65.16
2023-05-11T04:07:27.191Z,65.12
2023-05-11T04:08:01.397Z,65.07
2023-05-11T04:08:34.585Z,64.98
2023-05-11T04:09:08.003Z,64.79
2023-05-11T04:09:41.297Z,64.56
2023-05-11T04:10:14.530Z,64.69
2023-05-11T04:10:47.875Z,64.69
2023-05-11T04:11:22.541Z,64.60
2023-05-11T04:11:55.894Z,64.38
2023-05-11T04:12:29.284Z,64.12
2023-05-11T04:13:02.441Z,64.06
2023-05-11T04:13:35.864Z,64.08
2023-05-11T04:14:09.630Z,64.07
2023-05-11T04:14:42.874Z,64.06
2023-05-11T04:15:16.405Z,64.11
2023-05-11T04:15:50.245Z,64.15
2023-05-11T04:16:24.584Z,64.09
2023-05-11T04:16:58.081Z,64.10
2023-05-11T04:17:31.290Z,63.83
2023-05-11T04:18:04.890Z,63.66
2023-05-11T04:18:38.185Z,63.45
2023-05-11T04:19:11.734Z,63.36
2023-05-11T04:19:45.002Z,63.30
2023-05-11T04:20:18.621Z,63.36
2023-05-11T04:20:52.061Z,63.34
2023-05-11T04:21:25.550Z,63.31
2023-05-11T04:21:58.737Z,63.20
2023-05-11T04:22:32.011Z,63.21
2023-05-11T04:23:05.291Z,63.28
2023-05-11T04:23:38.685Z,63.16
2023-05-11T04:24:12.184Z,63.13
2023-05-11T04:24:45.545Z,63.26
2023-05-11T04:25:19.059Z,63.11
2023-05-11T04:25:55.993Z,62.82
2023-05-11T04:26:29.422Z,62.55
2023-05-11T04:27:02.920Z,62.41
2023-05-11T04:27:36.471Z,62.36
2023-05-11T04:28:09.862Z,62.27
2023-05-11T04:28:43.113Z,62.55
2023-05-11T04:29:16.400Z,62.75
2023-05-11T04:29:49.576Z,62.80
2023-05-11T04:30:23.180Z,62.57
2023-05-11T04:30:57.709Z,62.43
2023-05-11T04:31:31.541Z,62.43
2023-05-11T04:32:05.371Z,62.57
2023-05-11T04:32:38.729Z,62.53
2023-05-11T04:33:12.912Z,62.49
2023-05-11T04:33:46.430Z,62.35
2023-05-11T04:34:19.745Z,62.21
2023-05-11T04:34:52.888Z,62.06
2023-05-11T04:35:26.399Z,62.10
2023-05-11T04:35:59.566Z,62.33
2023-05-11T04:36:33.339Z,62.44
2023-05-11T04:37:07.713Z,62.70
2023-05-11T04:37:41.443Z,62.88
2023-05-11T04:38:14.720Z,62.94
2023-05-11T04:38:48.410Z,63.06
2023-05-11T04:39:21.591Z,63.28
2023-05-11T04:39:55.197Z,63.57
2023-05-11T04:40:28.454Z,63.69
2023-05-11T04:41:09.118Z,63.73
2023-05-11T04:41:42.903Z,63.85
2023-05-11T04:42:16.300Z,63.84
2023-05-11T04:42:49.426Z,63.87
2023-05-11T04:43:23.685Z,63.58
2023-05-11T04:43:56.958Z,63.47
2023-05-11T04:44:30.162Z,63.17
2023-05-11T04:45:03.615Z,63.08
2023-05-11T04:45:37.117Z,63.37
2023-05-11T04:46:11.016Z,63.56
2023-05-11T04:46:44.207Z,63.63
2023-05-11T04:47:17.546Z,63.66
2023-05-11T04:47:51.015Z,63.83
2023-05-11T04:48:24.561Z,63.67
2023-05-11T04:48:57.806Z,63.43
2023-05-11T04:49:31.187Z,63.39
2023-05-11T04:50:04.986Z,63.49
2023-05-11T04:50:38.296Z,63.73
2023-05-11T04:51:11.645Z,63.63
2023-05-11T04:51:45.037Z,63.68
2023-05-11T04:52:18.275Z,63.81
2023-05-11T04:52:52.095Z,63.57
2023-05-11T04:53:25.272Z,63.35
2023-05-11T04:53:59.081Z,63.22
2023-05-11T04:54:32.254Z,63.26
2023-05-11T04:55:06.380Z,63.33
2023-05-11T04:55:39.869Z,63.27
2023-05-11T04:56:13.216Z,63.31
2023-05-11T04:56:46.501Z,63.16
2023-05-11T04:57:19.694Z,63.26
2023-05-11T04:57:52.970Z,63.47
2023-05-11T04:58:26.330Z,63.50
2023-05-11T04:58:59.727Z,63.53
2023-05-11T04:59:34.062Z,63.53
2023-05-11T05:00:08.917Z,63.45
2023-05-11T05:00:42.267Z,63.16
2023-05-11T05:01:15.642Z,63.12
2023-05-11T05:01:49.116Z,63.16
2023-05-11T05:02:22.535Z,63.05
2023-05-11T05:02:55.899Z,63.16
2023-05-11T05:03:29.297Z,63.23
2023-05-11T05:04:02.837Z,63.25
2023-05-11T05:04:36.619Z,63.21
2023-05-11T05:05:10.930Z,63.11
2023-05-11T05:05:44.203Z,63.06
2023-05-11T05:06:17.493Z,63.00
2023-05-11T05:06:50.973Z,62.88
2023-05-11T05:07:24.286Z,62.66
2023-05-11T05:07:57.768Z,62.27
2023-05-11T05:08:30.914Z,62.27
2023-05-11T05:09:04.624Z,62.29
2023-05-11T05:09:37.806Z,62.10
2023-05-11T05:10:12.632Z,62.12
2023-05-11T05:10:47.859Z,62.32
2023-05-11T05:11:21.835Z,62.40
2023-05-11T05:11:55.112Z,62.30
2023-05-11T05:12:28.382Z,62.21
2023-05-11T05:13:01.617Z,62.18
2023-05-11T05:13:34.939Z,61.88
2023-05-11T05:14:08.470Z,61.88
2023-05-11T05:14:42.026Z,61.97
2023-05-11T05:15:15.317Z,62.06
2023-05-11T05:15:48.816Z,61.86
2023-05-11T05:16:22.124Z,61.91
2023-05-11T05:16:55.636Z,62.04
2023-05-11T05:17:29.085Z,62.17
2023-05-11T05:18:02.560Z,61.88
2023-05-11T05:18:36.235Z,61.91
2023-05-11T05:19:10.478Z,61.81
2023-05-11T05:19:44.001Z,61.90
2023-05-11T05:20:17.765Z,62.13
2023-05-11T05:20:51.072Z,62.58
2023-05-11T05:21:25.097Z,62.75
2023-05-11T05:21:58.863Z,62.51
2023-05-11T05:22:32.381Z,62.29
2023-05-11T05:23:06.106Z,62.19
2023-05-11T05:23:39.262Z,62.11
2023-05-11T05:24:12.791Z,61.86
2023-05-11T05:24:46.306Z,61.72
2023-05-11T05:25:19.685Z,61.59
2023-05-11T05:25:53.165Z,61.66
2023-05-11T05:26:26.672Z,61.71
2023-05-11T05:27:00.172Z,61.88
2023-05-11T05:27:34.946Z,62.05
2023-05-11T05:28:08.537Z,62.40
2023-05-11T05:28:42.024Z,62.54
2023-05-11T05:29:15.411Z,62.61
2023-05-11T05:29:48.786Z,62.64
2023-05-11T05:30:22.069Z,62.65
2023-05-11T05:30:55.391Z,62.84
2023-05-11T05:31:28.910Z,62.70
2023-05-11T05:32:02.726Z,62.62
2023-05-11T05:32:36.055Z,62.73
2023-05-11T05:33:09.585Z,62.66
2023-05-11T05:33:42.893Z,62.62
2023-05-11T05:34:16.761Z,62.43
2023-05-11T05:34:50.259Z,62.26
2023-05-11T05:35:23.851Z,62.21
2023-05-11T05:35:57.230Z,62.33
2023-05-11T05:36:31.235Z,62.44
2023-05-11T05:37:04.626Z,62.51
2023-05-11T05:37:38.215Z,62.35
2023-05-11T05:38:11.495Z,62.21
2023-05-11T05:38:44.861Z,62.03
2023-05-11T05:39:18.852Z,61.70
2023-05-11T05:39:52.176Z,61.59
2023-05-11T05:40:25.632Z,61.54
2023-05-11T05:40:59.348Z,61.23
2023-05-11T05:41:32.926Z,61.17
2023-05-11T05:42:06.495Z,61.19
2023-05-11T05:42:39.667Z,61.12
2023-05-11T05:43:12.962Z,60.85
2023-05-11T05:43:46.433Z,60.77
2023-05-11T05:44:19.610Z,60.52
2023-05-11T05:44:52.894Z,60.34
2023-05-11T05:45:26.186Z,60.37
2023-05-11T05:46:01.579Z,60.38
2023-05-11T05:46:35.298Z,60.49
2023-05-11T05:47:08.673Z,60.59
2023-05-11T05:47:42.499Z,60.65
2023-05-11T05:48:15.742Z,60.73
2023-05-11T05:48:48.948Z,60.82
2023-05-11T05:49:22.101Z,60.81
2023-05-11T05:49:55.307Z,60.53
2023-05-11T05:50:28.876Z,60.44
2023-05-11T05:51:02.356Z,60.22
2023-05-11T05:51:35.934Z,60.22
2023-05-11T05:52:10.880Z,60.28
2023-05-11T05:52:44.037Z,60.41
2023-05-11T05:53:17.587Z,60.66
2023-05-11T05:53:50.701Z,60.91
2023-05-11T05:54:24.113Z,61.28
2023-05-11T05:54:57.676Z,61.36
2023-05-11T05:55:31.280Z,61.55
2023-05-11T05:56:04.953Z,61.89
2023-05-11T05:56:38.242Z,62.16
2023-05-11T05:57:12.786Z,62.51
2023-05-11T05:57:47.586Z,62.68
2023-05-11T05:58:20.904Z,62.92
2023-05-11T05:58:54.347Z,62.93
2023-05-11T05:59:27.923Z,62.88
2023-05-11T06:00:01.132Z,62.49
2023-05-11T06:00:36.623Z,61.68
2023-05-11T06:01:10.012Z,61.61
2023-05-11T06:01:46.673Z,61.36
2023-05-11T06:02:20.073Z,60.84
2023-05-11T06:02:53.617Z,60.98
2023-05-11T06:03:29.074Z,61.03
2023-05-11T06:04:04.107Z,60.93
2023-05-11T06:04:37.514Z,60.93
2023-05-11T06:05:10.852Z,60.89
2023-05-11T06:05:44.193Z,60.50
2023-05-11T06:06:17.728Z,60.27
2023-05-11T06:06:50.896Z,60.35
2023-05-11T06:07:24.498Z,60.14
2023-05-11T06:08:09.315Z,59.47
2023-05-11T06:08:44.362Z,59.40
2023-05-11T06:09:17.531Z,59.53
2023-05-11T06:09:50.923Z,59.76
2023-05-11T06:10:24.218Z,59.96
2023-05-11T06:10:57.516Z,60.06
2023-05-11T06:11:30.792Z,60.22
2023-05-11T06:12:05.386Z,60.12
2023-05-11T06:12:38.652Z,60.08
2023-05-11T06:13:12.031Z,60.08
2023-05-11T06:13:45.339Z,60.13
2023-05-11T06:14:18.606Z,60.17
2023-05-11T06:14:51.980Z,59.48
2023-05-11T06:15:25.365Z,59.22
2023-05-11T06:15:58.662Z,59.49
2023-05-11T06:16:32.251Z,59.93
2023-05-11T06:17:05.612Z,60.18
2023-05-11T06:17:38.944Z,60.28
2023-05-11T06:18:12.414Z,60.53
2023-05-11T06:18:47.185Z,60.25
2023-05-11T06:19:20.479Z,60.10
2023-05-11T06:19:54.062Z,60.15
2023-05-11T06:20:27.243Z,60.08
2023-05-11T06:21:00.646Z,59.93
2023-05-11T06:21:34.019Z,60.09
2023-05-11T06:22:07.235Z,59.82
2023-05-11T06:22:40.668Z,59.74
2023-05-11T06:23:13.913Z,59.78
2023-05-11T06:23:47.271Z,59.68
2023-05-11T06:24:20.527Z,59.82
2023-05-11T06:24:53.900Z,59.73
2023-05-11T06:25:27.989Z,59.31
2023-05-11T06:26:01.388Z,58.80
2023-05-11T06:26:34.760Z,58.67
2023-05-11T06:27:07.936Z,58.66
2023-05-11T06:27:41.441Z,58.70
2023-05-11T06:28:15.231Z,58.74
2023-05-11T06:28:48.600Z,58.81
2023-05-11T06:29:22.492Z,58.64
2023-05-11T06:29:56.187Z,58.62
2023-05-11T06:30:29.990Z,58.66
2023-05-11T06:31:04.104Z,58.21
2023-05-11T06:31:37.393Z,58.12
2023-05-11T06:32:11.109Z,58.07
2023-05-11T06:32:44.361Z,57.53
2023-05-11T06:33:17.709Z,57.39
2023-05-11T06:33:51.533Z,57.18
2023-05-11T06:34:24.783Z,56.72
2023-05-11T06:34:58.081Z,56.94
2023-05-11T06:35:31.450Z,57.06
2023-05-11T06:36:06.499Z,57.23
2023-05-11T06:36:39.547Z,57.19
2023-05-11T06:37:16.367Z,57.21
2023-05-11T06:37:49.894Z,57.18
2023-05-11T06:38:23.277Z,57.24
2023-05-11T06:38:56.570Z,57.25
2023-05-11T06:39:29.719Z,57.23
2023-05-11T06:40:03.445Z,57.23
2023-05-11T06:40:36.818Z,57.06
2023-05-11T06:41:11.735Z,56.84
2023-05-11T06:41:44.905Z,56.81
2023-05-11T06:42:18.190Z,56.97
2023-05-11T06:42:51.573Z,57.10
2023-05-11T06:43:24.852Z,57.36
2023-05-11T06:43:58.137Z,57.69
2023-05-11T06:44:31.519Z,57.92
2023-05-11T06:45:05.494Z,58.05
2023-05-11T06:45:38.940Z,58.11
2023-05-11T06:46:17.077Z,58.06
2023-05-11T06:46:50.680Z,58.09
2023-05-11T06:47:23.797Z,58.11
2023-05-11T06:47:57.223Z,58.39
2023-05-11T06:48:31.452Z,58.55
2023-05-11T06:49:04.735Z,58.50
2023-05-11T06:49:38.330Z,58.51
2023-05-11T06:50:11.800Z,58.56
2023-05-11T06:50:45.084Z,58.69
2023-05-11T06:51:18.360Z,58.91
2023-05-11T06:51:51.656Z,59.07
2023-05-11T06:52:25.025Z,59.08
2023-05-11T06:52:58.405Z,58.94
2023-05-11T06:53:31.709Z,58.93
2023-05-11T06:54:05.372Z,58.72
2023-05-11T06:54:38.964Z,58.67
2023-05-11T06:55:14.612Z,58.75
2023-05-11T06:55:48.290Z,58.90
2023-05-11T06:56:22.204Z,59.24
2023-05-11T06:56:55.387Z,59.40
2023-05-11T06:57:28.648Z,59.47
2023-05-11T06:58:01.833Z,59.45
2023-05-11T06:58:35.208Z,59.74
2023-05-11T06:59:08.692Z,59.41
2023-05-11T06:59:42.582Z,59.04
2023-05-11T07:00:16.504Z,59.03
2023-05-11T07:00:49.890Z,58.57
2023-05-11T07:01:23.303Z,58.33
2023-05-11T07:01:56.760Z,58.31
2023-05-11T07:02:30.782Z,58.37
2023-05-11T07:03:04.357Z,58.55
2023-05-11T07:03:37.615Z,58.49
2023-05-11T07:04:11.253Z,58.46
2023-05-11T07:04:44.740Z,58.43
2023-05-11T07:05:17.954Z,58.27
2023-05-11T07:05:51.149Z,58.15
2023-05-11T07:06:24.723Z,58.21
2023-05-11T07:06:58.414Z,58.49
2023-05-11T07:07:31.557Z,58.88
2023-05-11T07:08:05.499Z,58.93
2023-05-11T07:08:38.876Z,58.80
2023-05-11T07:09:12.033Z,58.69
2023-05-11T07:09:45.237Z,58.71
2023-05-11T07:10:18.996Z,58.60
2023-05-11T07:10:52.663Z,58.63
2023-05-11T07:11:26.633Z,58.50
2023-05-11T07:11:59.770Z,58.54
2023-05-11T07:12:33.156Z,58.41
2023-05-11T07:13:06.637Z,57.99
2023-05-11T07:13:39.856Z,57.56
2023-05-11T07:14:12.999Z,57.12
2023-05-11T07:14:46.273Z,56.80
2023-05-11T07:15:20.017Z,56.83
2023-05-11T07:15:55.206Z,56.97
2023-05-11T07:16:30.064Z,57.07
2023-05-11T07:17:04.100Z,56.85
2023-05-11T07:17:37.439Z,56.98
2023-05-11T07:18:10.926Z,57.06
2023-05-11T07:18:44.163Z,57.15
2023-05-11T07:19:17.459Z,57.29
2023-05-11T07:19:52.744Z,57.42
2023-05-11T07:20:26.039Z,57.07
2023-05-11T07:20:59.324Z,56.93
2023-05-11T07:21:33.224Z,56.97
2023-05-11T07:22:06.602Z,56.56
2023-05-11T07:22:39.880Z,56.51
2023-05-11T07:23:13.255Z,56.62
2023-05-11T07:23:46.888Z,57.05
2023-05-11T07:24:20.235Z,57.30
2023-05-11T07:24:53.744Z,57.50
2023-05-11T07:25:26.997Z,57.69
2023-05-11T07:26:00.199Z,57.78
2023-05-11T07:26:33.481Z,57.91
2023-05-11T07:27:07.052Z,57.74
2023-05-11T07:27:40.226Z,57.25
2023-05-11T07:28:13.735Z,56.77
2023-05-11T07:28:47.110Z,56.53
2023-05-11T07:29:20.484Z,56.24
2023-05-11T07:29:53.680Z,56.10
2023-05-11T07:30:27.046Z,56.07
2023-05-11T07:31:00.694Z,56.22
2023-05-11T07:31:34.965Z,56.41